Time;durP1;ratioP1;P1;durP2;ratioP2;P2;SDS_P1;SDS_P2;PMS_P1;PMS_P2;Temp;Humidity;BMP_temperature;BMP_pressure;BME280_temperature;BME280_humidity;BME280_pressure;Samples;Min_cycle;Max_cycle;Signal;HPM_P1;HPM_P2
2023/08/24 00:02:28;;;;;;;3.20;2.53;;;22.40;55.70;;;;;;5032491;28;20041;-52
2023/08/24 00:04:56;;;;;;;4.28;3.55;;;22.40;55.60;;;;;;5031034;28;20530;-51
2023/08/24 00:07:23;;;;;;;3.00;2.72;;;22.40;55.70;;;;;;5030598;28;20049;-49
2023/08/24 00:09:55;;;;;;;3.08;2.80;;;22.40;55.80;;;;;;5031011;28;20100;-53
2023/08/24 00:12:21;;;;;;;2.75;2.50;;;22.40;56.10;;;;;;5032216;28;20087;-49
2023/08/24 00:14:50;;;;;;;3.25;2.95;;;22.40;55.80;;;;;;5030586;28;20068;-51
2023/08/24 00:17:17;;;;;;;3.53;2.42;;;22.30;55.90;;;;;;5030193;28;20041;-53
2023/08/24 00:19:46;;;;;;;2.83;2.45;;;22.30;56.00;;;;;;5030589;28;20434;-53
2023/08/24 00:22:13;;;;;;;3.30;2.90;;;22.30;56.10;;;;;;5014202;28;20061;-52
2023/08/24 00:24:42;;;;;;;3.10;2.80;;;22.20;56.10;;;;;;5030925;28;20041;-53
2023/08/24 00:27:09;;;;;;;7.13;3.47;;;22.20;56.20;;;;;;5030722;28;20083;-54
2023/08/24 00:29:36;;;;;;;5.32;2.95;;;22.20;56.30;;;;;;5029683;28;20045;-49
2023/08/24 00:32:06;;;;;;;3.60;3.05;;;22.20;56.40;;;;;;5012163;28;20041;-54
2023/08/24 00:34:32;;;;;;;3.58;2.88;;;22.20;56.50;;;;;;5030729;28;20069;-50
2023/08/24 00:37:02;;;;;;;3.75;2.80;;;22.10;56.50;;;;;;5030890;28;20049;-52
2023/08/24 00:39:29;;;;;;;3.55;3.05;;;22.10;56.70;;;;;;5030045;28;20149;-50
2023/08/24 00:41:59;;;;;;;3.38;3.08;;;22.10;56.80;;;;;;5013134;28;20111;-53
2023/08/24 00:44:28;;;;;;;2.67;2.30;;;22.10;57.00;;;;;;4998672;28;20050;-52
2023/08/24 00:46:58;;;;;;;3.47;2.67;;;22.10;57.00;;;;;;5028447;28;20120;-52
2023/08/24 00:49:26;;;;;;;4.30;2.85;;;22.10;56.70;;;;;;5030072;28;20345;-53
2023/08/24 00:51:52;;;;;;;3.58;2.53;;;22.10;56.80;;;;;;5030809;28;20055;-51
2023/08/24 00:54:22;;;;;;;5.25;2.78;;;22.00;57.00;;;;;;5030507;28;20396;-53
2023/08/24 00:56:53;;;;;;;3.97;2.90;;;22.00;57.40;;;;;;5010896;28;20041;-52
2023/08/24 00:59:20;;;;;;;2.92;2.63;;;22.00;57.20;;;;;;5028868;28;20100;-53
2023/08/24 01:01:49;;;;;;;3.75;2.53;;;22.00;57.20;;;;;;5011361;28;20534;-51
2023/08/24 01:04:16;;;;;;;3.50;2.40;;;22.00;57.30;;;;;;5030675;28;20064;-53
2023/08/24 01:06:43;;;;;;;2.80;2.40;;;21.90;57.30;;;;;;5030039;28;20139;-52
2023/08/24 01:09:20;;;;;;;3.55;2.95;;;21.90;57.40;;;;;;5010328;28;20086;-54
2023/08/24 01:12:18;;;;;;;6.50;3.10;;;21.90;57.70;;;;;;5012337;28;20573;-53
2023/08/24 01:14:56;;;;;;;2.60;2.40;;;21.90;58.30;;;;;;4973597;28;20061;-52
2023/08/24 01:17:29;;;;;;;4.07;2.58;;;21.90;58.00;;;;;;5029170;28;20212;-51
2023/08/24 01:19:58;;;;;;;5.20;3.13;;;21.90;57.70;;;;;;5011416;28;20511;-50
2023/08/24 01:22:40;;;;;;;7.57;3.20;;;21.90;57.80;;;;;;5012549;28;20053;-52
2023/08/24 01:25:34;;;;;;;3.40;3.10;;;21.90;58.20;;;;;;5021143;28;20057;-49
2023/08/24 01:28:12;;;;;;;3.45;3.00;;;21.80;57.60;;;;;;5021701;28;20454;-51
2023/08/24 01:30:39;;;;;;;3.67;3.33;;;21.80;58.10;;;;;;5027813;28;20038;-52
2023/08/24 01:33:11;;;;;;;4.85;3.17;;;21.80;57.90;;;;;;5010713;28;20129;-52
2023/08/24 01:35:39;;;;;;;4.90;3.00;;;21.80;58.00;;;;;;5025606;28;20041;-53
2023/08/24 01:38:13;;;;;;;3.88;3.58;;;21.80;58.00;;;;;;5022688;28;20087;-49
2023/08/24 01:41:08;;;;;;;3.65;3.35;;;21.70;58.10;;;;;;5028900;28;20091;-52
2023/08/24 01:43:39;;;;;;;5.28;4.07;;;21.80;58.90;;;;;;5012757;28;20448;-53
2023/08/24 01:46:17;;;;;;;4.85;3.30;;;21.70;58.60;;;;;;5015658;28;20487;-50
2023/08/24 01:48:47;;;;;;;6.72;3.83;;;21.70;58.50;;;;;;5027218;28;20042;-50
2023/08/24 01:51:21;;;;;;;5.30;3.15;;;21.70;58.20;;;;;;5011460;28;20053;-53
2023/08/24 01:53:50;;;;;;;4.20;3.27;;;21.70;58.20;;;;;;5029734;28;20073;-52
2023/08/24 01:56:20;;;;;;;5.25;3.85;;;21.70;58.20;;;;;;5006373;28;20056;-51
2023/08/24 01:58:46;;;;;;;4.47;3.30;;;21.70;58.60;;;;;;5008181;28;20053;-51
2023/08/24 02:01:22;;;;;;;4.50;3.40;;;21.60;58.30;;;;;;5009458;28;20041;-51
2023/08/24 02:03:52;;;;;;;3.88;3.28;;;21.60;58.60;;;;;;5011515;28;20136;-53
2023/08/24 02:06:21;;;;;;;7.50;3.13;;;21.60;58.40;;;;;;5010785;28;20068;-51
2023/08/24 02:08:48;;;;;;;9.90;3.42;;;21.60;58.60;;;;;;5029171;28;20102;-52
2023/08/24 02:11:17;;;;;;;3.60;3.30;;;21.60;58.60;;;;;;5029136;28;20072;-53
2023/08/24 02:13:44;;;;;;;4.00;3.13;;;21.50;58.70;;;;;;5010759;28;20797;-54
2023/08/24 02:16:19;;;;;;;4.40;2.90;;;21.50;58.80;;;;;;5026255;28;20041;-54
2023/08/24 02:18:47;;;;;;;4.95;3.25;;;21.50;58.90;;;;;;5027508;28;20037;-54
2023/08/24 02:21:16;;;;;;;4.35;3.10;;;21.50;59.10;;;;;;5029077;28;20418;-52
2023/08/24 02:23:42;;;;;;;4.40;3.05;;;21.50;59.40;;;;;;5011570;28;20045;-51
2023/08/24 02:26:12;;;;;;;7.13;3.25;;;21.60;59.70;;;;;;5010529;28;20056;-53
2023/08/24 02:28:39;;;;;;;5.88;3.35;;;21.60;59.80;;;;;;5008620;28;20108;-55
2023/08/24 02:31:09;;;;;;;3.35;3.08;;;21.60;60.00;;;;;;5007454;28;20058;-51
2023/08/24 02:33:36;;;;;;;4.72;3.65;;;21.60;60.20;;;;;;5011888;28;20049;-51
2023/08/24 02:36:03;;;;;;;4.38;3.30;;;21.60;60.30;;;;;;5028115;28;20084;-53
2023/08/24 02:38:32;;;;;;;4.00;3.70;;;21.70;60.40;;;;;;5005126;28;20396;-54
2023/08/24 02:41:06;;;;;;;5.30;3.65;;;21.70;60.40;;;;;;5028313;28;20476;-54
2023/08/24 02:43:37;;;;;;;6.50;3.65;;;21.70;60.40;;;;;;5027836;28;20052;-49
2023/08/24 02:46:07;;;;;;;;;;;21.80;60.70;;;;;;4996456;28;20077;-53
2023/08/24 02:48:40;;;;;;;4.75;3.20;;;21.80;59.60;;;;;;5028432;28;20386;-52
2023/08/24 02:51:08;;;;;;;4.05;3.55;;;21.80;59.80;;;;;;5011038;28;20447;-52
2023/08/24 02:53:37;;;;;;;4.03;3.35;;;21.90;60.10;;;;;;5029227;28;20504;-53
2023/08/24 02:56:05;;;;;;;3.83;3.33;;;21.90;60.20;;;;;;5027025;28;20038;-53
2023/08/24 02:58:33;;;;;;;4.07;3.45;;;21.90;60.40;;;;;;5026669;28;20072;-52
2023/08/24 03:01:08;;;;;;;5.22;3.40;;;21.90;60.60;;;;;;5027531;28;20057;-53
2023/08/24 03:03:43;;;;;;;3.78;3.33;;;21.90;60.60;;;;;;5029228;28;20045;-50
2023/08/24 03:06:14;;;;;;;5.47;3.40;;;21.90;60.80;;;;;;5004132;28;20069;-49
2023/08/24 03:08:41;;;;;;;4.43;3.25;;;22.00;60.90;;;;;;5007202;28;20109;-49
2023/08/24 03:11:07;;;;;;;4.07;3.55;;;22.00;61.00;;;;;;5010203;28;20116;-53
2023/08/24 03:13:38;;;;;;;5.45;4.35;;;22.00;61.00;;;;;;4995004;28;20464;-49
2023/08/24 03:16:08;;;;;;;4.60;3.75;;;22.00;61.10;;;;;;5004511;28;20049;-49
2023/08/24 03:18:36;;;;;;;3.92;3.53;;;22.00;61.20;;;;;;5005516;28;20531;-53
2023/08/24 03:21:09;;;;;;;4.63;3.78;;;22.10;61.30;;;;;;5028201;28;20049;-49
2023/08/24 03:23:36;;;;;;;8.18;3.97;;;22.10;61.80;;;;;;5010966;28;20045;-55
2023/08/24 03:26:06;;;;;;;7.13;4.78;;;22.10;61.80;;;;;;4999779;28;20095;-54
2023/08/24 03:28:32;;;;;;;5.32;4.00;;;22.10;62.00;;;;;;5009270;28;20426;-51
2023/08/24 03:31:00;;;;;;;4.57;3.78;;;22.20;62.10;;;;;;5011905;28;20073;-52
2023/08/24 03:33:30;;;;;;;4.03;3.72;;;22.20;62.40;;;;;;5015381;28;20049;-51
2023/08/24 03:35:57;;;;;;;4.97;4.22;;;22.20;62.60;;;;;;5012654;28;20049;-50
2023/08/24 03:38:25;;;;;;;5.22;4.10;;;22.20;62.50;;;;;;5014036;28;20041;-52
2023/08/24 03:41:03;;;;;;;4.65;3.53;;;22.20;62.80;;;;;;5013626;28;20034;-52
2023/08/24 03:43:36;;;;;;;4.25;3.83;;;22.30;63.10;;;;;;5012535;28;20037;-54
2023/08/24 03:46:07;;;;;;;6.88;3.80;;;22.30;62.70;;;;;;5024339;28;20042;-52
2023/08/24 03:48:38;;;;;;;4.65;3.72;;;22.30;63.10;;;;;;5010490;28;20037;-50
2023/08/24 03:51:07;;;;;;;8.47;4.90;;;22.30;63.20;;;;;;5022866;28;20116;-50
2023/08/24 03:53:39;;;;;;;8.48;5.18;;;22.40;62.80;;;;;;5012845;28;20042;-50
2023/08/24 03:56:06;;;;;;;5.47;4.97;;;22.40;63.00;;;;;;5005498;28;20141;-54
2023/08/24 03:58:34;;;;;;;7.50;5.05;;;22.40;63.20;;;;;;5010578;28;20037;-53
2023/08/24 04:01:03;;;;;;;5.78;5.10;;;22.40;63.30;;;;;;5025298;28;20041;-52
2023/08/24 04:03:32;;;;;;;8.82;6.38;;;22.40;63.40;;;;;;5012361;28;20042;-53
2023/08/24 04:06:02;;;;;;;12.02;7.75;;;22.40;63.60;;;;;;5012239;28;20554;-49
2023/08/24 04:08:29;;;;;;;6.55;5.05;;;22.40;63.90;;;;;;5025394;28;20049;-49
2023/08/24 04:10:56;;;;;;;6.82;5.68;;;22.40;63.70;;;;;;4998235;28;20099;-52
2023/08/24 04:13:24;;;;;;;6.47;5.78;;;22.40;63.70;;;;;;5027474;28;20073;-53
2023/08/24 04:15:55;;;;;;;11.13;6.10;;;22.40;63.90;;;;;;4982427;28;20718;-49
2023/08/24 04:18:25;;;;;;;6.70;5.55;;;22.40;63.80;;;;;;5030816;28;20050;-52
2023/08/24 04:20:53;;;;;;;7.40;6.60;;;22.30;64.00;;;;;;5003785;28;20053;-50
2023/08/24 04:23:26;;;;;;;11.77;6.63;;;22.30;64.00;;;;;;5032246;28;20049;-49
2023/08/24 04:25:53;;;;;;;6.80;6.15;;;22.30;64.30;;;;;;5028452;28;20041;-51
2023/08/24 04:28:21;;;;;;;7.90;6.50;;;22.30;63.80;;;;;;5027983;28;20045;-52
2023/08/24 04:30:52;;;;;;;8.65;7.30;;;22.30;64.20;;;;;;5030179;28;20504;-51
2023/08/24 04:33:21;;;;;;;6.78;6.05;;;22.30;64.30;;;;;;5032847;28;20092;-51
2023/08/24 04:35:49;;;;;;;9.15;7.13;;;22.30;64.40;;;;;;5030407;28;20669;-53
2023/08/24 04:38:17;;;;;;;6.35;5.80;;;22.30;64.10;;;;;;5030142;28;20042;-53
2023/08/24 04:40:56;;;;;;;10.93;6.57;;;22.30;64.50;;;;;;5029092;28;20516;-50
2023/08/24 04:43:32;;;;;;;8.63;6.43;;;22.30;64.90;;;;;;5031468;28;20049;-53
2023/08/24 04:45:58;;;;;;;7.45;6.47;;;22.30;64.40;;;;;;5030615;28;20045;-52
2023/08/24 04:48:34;;;;;;;7.97;7.18;;;22.30;64.50;;;;;;5030118;28;20522;-53
2023/08/24 04:51:04;;;;;;;8.13;6.43;;;22.30;64.70;;;;;;5030884;28;20048;-53
2023/08/24 04:53:32;;;;;;;9.05;5.95;;;22.20;64.20;;;;;;5032141;28;20041;-52
2023/08/24 04:55:58;;;;;;;7.55;6.32;;;22.20;64.10;;;;;;5022620;28;20041;-52
2023/08/24 04:58:26;;;;;;;10.50;6.75;;;22.20;64.50;;;;;;5028974;28;20076;-56
2023/08/24 05:00:55;;;;;;;8.18;6.75;;;22.20;64.20;;;;;;5022700;28;20087;-50
2023/08/24 05:03:22;;;;;;;9.20;6.70;;;22.30;64.10;;;;;;5021203;28;20069;-50
2023/08/24 05:05:48;;;;;;;7.18;6.47;;;22.30;64.30;;;;;;5029913;28;20043;-51
2023/08/24 05:08:15;;;;;;;7.85;5.88;;;22.30;64.30;;;;;;5018014;28;20154;-51
2023/08/24 05:10:43;;;;;;;8.25;6.47;;;22.30;64.70;;;;;;5024658;28;20041;-54
2023/08/24 05:13:11;;;;;;;9.55;6.20;;;22.30;64.70;;;;;;5030752;28;20048;-55
2023/08/24 05:15:37;;;;;;;7.60;6.45;;;22.30;64.40;;;;;;5028713;28;20053;-53
2023/08/24 05:18:04;;;;;;;8.02;6.03;;;22.30;64.40;;;;;;5029963;28;20045;-52
2023/08/24 05:20:32;;;;;;;7.75;6.40;;;22.30;64.50;;;;;;5030140;28;20087;-49
2023/08/24 05:22:59;;;;;;;7.97;5.90;;;22.30;64.70;;;;;;5030028;28;20045;-53
2023/08/24 05:25:26;;;;;;;7.10;6.03;;;22.30;64.80;;;;;;5030013;28;20041;-53
2023/08/24 05:27:53;;;;;;;10.02;6.15;;;22.30;64.80;;;;;;5027012;28;20073;-51
2023/08/24 05:30:19;;;;;;;7.68;5.85;;;22.30;64.70;;;;;;5027094;28;20045;-55
2023/08/24 05:32:46;;;;;;;9.00;6.32;;;22.30;64.60;;;;;;5029001;28;20047;-53
2023/08/24 05:35:13;;;;;;;11.38;6.00;;;22.30;64.80;;;;;;5026504;28;20045;-52
2023/08/24 05:37:39;;;;;;;9.73;6.40;;;22.30;64.60;;;;;;5023895;28;20038;-56
2023/08/24 05:40:07;;;;;;;9.63;5.93;;;22.30;64.60;;;;;;5027750;28;20042;-54
2023/08/24 05:42:33;;;;;;;7.55;5.30;;;22.30;64.80;;;;;;5028870;28;20765;-54
2023/08/24 05:45:00;;;;;;;6.40;5.38;;;22.30;64.50;;;;;;5028313;28;20042;-50
2023/08/24 05:47:27;;;;;;;9.32;5.85;;;22.30;64.70;;;;;;5027822;28;20400;-52
2023/08/24 05:49:54;;;;;;;7.55;5.35;;;22.30;64.70;;;;;;5028501;28;20419;-55
2023/08/24 05:52:20;;;;;;;9.20;5.55;;;22.30;64.80;;;;;;5028119;28;20115;-54
2023/08/24 05:54:47;;;;;;;6.90;5.07;;;22.30;65.00;;;;;;5024831;28;20120;-51
2023/08/24 05:57:14;;;;;;;10.77;6.60;;;22.30;65.00;;;;;;5027683;28;20050;-54
2023/08/24 05:59:40;;;;;;;8.98;4.93;;;22.30;64.90;;;;;;5027349;28;20114;-54
2023/08/24 06:02:07;;;;;;;6.40;4.90;;;22.30;65.10;;;;;;5026742;28;20053;-55
2023/08/24 06:04:34;;;;;;;10.07;5.65;;;22.30;65.20;;;;;;5021719;28;20037;-54
2023/08/24 06:07:01;;;;;;;11.00;5.45;;;22.30;65.50;;;;;;5023574;28;20820;-56
2023/08/24 06:09:27;;;;;;;9.43;5.20;;;22.30;65.10;;;;;;5025752;28;20073;-54
2023/08/24 06:11:54;;;;;;;9.05;5.75;;;22.20;65.40;;;;;;5028294;28;20053;-54
2023/08/24 06:14:21;;;;;;;12.00;5.85;;;22.20;65.40;;;;;;5026122;28;20140;-54
2023/08/24 06:16:48;;;;;;;9.25;5.50;;;22.30;65.40;;;;;;5028069;28;20044;-54
2023/08/24 06:19:15;;;;;;;10.40;5.85;;;22.30;65.50;;;;;;5029425;28;20065;-54
2023/08/24 06:21:42;;;;;;;14.70;5.35;;;22.30;65.70;;;;;;5029605;28;20072;-54
2023/08/24 06:24:09;;;;;;;9.18;5.32;;;22.30;65.60;;;;;;5029072;28;20539;-53
2023/08/24 06:26:36;;;;;;;11.68;5.30;;;22.30;65.60;;;;;;5027293;28;20073;-51
2023/08/24 06:29:03;;;;;;;6.43;5.22;;;22.30;65.60;;;;;;5028830;28;20087;-52
2023/08/24 06:31:31;;;;;;;8.95;5.40;;;22.30;65.80;;;;;;5031050;28;20388;-55
2023/08/24 06:34:00;;;;;;;12.43;5.43;;;22.30;65.80;;;;;;5013026;28;20511;-57
2023/08/24 06:36:28;;;;;;;5.97;4.32;;;22.40;65.60;;;;;;5027767;28;20069;-53
2023/08/24 06:38:55;;;;;;;6.60;4.25;;;22.40;65.60;;;;;;5029023;28;20121;-52
2023/08/24 06:41:24;;;;;;;9.38;4.80;;;22.40;65.60;;;;;;5027916;28;20506;-51
2023/08/24 06:43:53;;;;;;;6.43;4.43;;;22.50;65.70;;;;;;5028811;28;20061;-52
2023/08/24 06:46:20;;;;;;;5.45;4.15;;;22.50;65.90;;;;;;5028214;28;20057;-50
2023/08/24 06:48:47;;;;;;;7.53;4.97;;;22.50;65.40;;;;;;5028604;28;20037;-53
2023/08/24 06:51:13;;;;;;;8.32;4.95;;;22.60;66.00;;;;;;5027761;28;20529;-51
2023/08/24 06:53:42;;;;;;;6.88;4.47;;;22.60;65.60;;;;;;5022630;28;20492;-58
2023/08/24 06:56:09;;;;;;;9.25;4.32;;;22.60;66.10;;;;;;5020675;28;20045;-50
2023/08/24 06:58:35;;;;;;;5.82;3.65;;;22.70;65.90;;;;;;5026319;28;20435;-53
2023/08/24 07:01:05;;;;;;;5.13;4.43;;;22.70;65.80;;;;;;5028922;28;20108;-50
2023/08/24 07:03:33;;;;;;;8.10;4.57;;;22.80;65.70;;;;;;5026426;28;20496;-50
2023/08/24 07:05:59;;;;;;;6.32;4.10;;;22.80;65.50;;;;;;5026673;28;20562;-54
2023/08/24 07:08:26;;;;;;;6.82;3.45;;;22.90;65.30;;;;;;5029119;28;20084;-53
2023/08/24 07:10:53;;;;;;;5.30;3.15;;;22.90;65.60;;;;;;5029013;28;20042;-49
2023/08/24 07:13:19;;;;;;;6.63;3.28;;;22.90;65.40;;;;;;5032123;28;20164;-53
2023/08/24 07:15:46;;;;;;;4.05;3.35;;;23.00;65.20;;;;;;5025796;28;20120;-54
2023/08/24 07:18:13;;;;;;;4.18;3.75;;;23.00;65.00;;;;;;5030075;28;20116;-50
2023/08/24 07:20:39;;;;;;;6.25;3.55;;;23.10;64.80;;;;;;5026623;28;20038;-57
2023/08/24 07:23:06;;;;;;;4.20;3.25;;;23.20;64.80;;;;;;5027430;28;20084;-53
2023/08/24 07:25:33;;;;;;;5.22;3.65;;;23.30;64.80;;;;;;5027037;28;20041;-56
2023/08/24 07:28:02;;;;;;;4.07;3.40;;;23.30;64.90;;;;;;5031289;28;20072;-56
2023/08/24 07:30:31;;;;;;;4.28;3.13;;;23.40;65.10;;;;;;5028129;28;20092;-54
2023/08/24 07:33:01;;;;;;;3.80;3.40;;;23.50;64.20;;;;;;5031671;28;20716;-51
2023/08/24 07:35:28;;;;;;;5.32;3.45;;;23.50;63.80;;;;;;5031504;28;20400;-54
2023/08/24 07:37:55;;;;;;;4.60;3.17;;;23.60;63.60;;;;;;5029042;28;20038;-50
2023/08/24 07:40:22;;;;;;;3.63;3.13;;;23.70;63.50;;;;;;5031435;28;20065;-56
2023/08/24 07:42:52;;;;;;;4.70;3.53;;;23.70;63.40;;;;;;5030361;28;20117;-55
2023/08/24 07:45:19;;;;;;;4.03;2.78;;;23.80;63.50;;;;;;5025777;28;20037;-54
2023/08/24 07:47:46;;;;;;;3.80;2.97;;;23.90;63.20;;;;;;5022242;28;20041;-50
2023/08/24 07:50:13;;;;;;;3.30;2.95;;;23.90;62.90;;;;;;5029560;28;20052;-49
2023/08/24 07:52:40;;;;;;;3.55;3.25;;;24.00;62.70;;;;;;5024432;28;20053;-54
2023/08/24 07:55:08;;;;;;;5.45;3.63;;;24.10;62.70;;;;;;5027256;28;20076;-55
2023/08/24 07:57:35;;;;;;;3.67;2.53;;;24.20;63.10;;;;;;5030209;28;20780;-56
2023/08/24 08:00:04;;;;;;;3.30;2.97;;;24.30;62.90;;;;;;5028743;28;20042;-51
2023/08/24 08:02:41;;;;;;;4.13;3.10;;;24.30;62.30;;;;;;5025467;28;20055;-57
2023/08/24 08:05:07;;;;;;;4.72;2.85;;;24.40;62.10;;;;;;5030698;28;20410;-50
2023/08/24 08:07:34;;;;;;;3.97;3.08;;;24.50;62.40;;;;;;5029810;28;20073;-53
2023/08/24 08:10:02;;;;;;;4.10;3.05;;;24.60;62.40;;;;;;5031092;28;20068;-54
2023/08/24 08:12:31;;;;;;;3.38;2.65;;;24.80;62.80;;;;;;5030774;28;20878;-51
2023/08/24 08:14:58;;;;;;;5.93;2.70;;;24.80;62.00;;;;;;5030886;28;21375;-54
2023/08/24 08:17:25;;;;;;;3.85;3.42;;;25.00;62.30;;;;;;5028361;28;20045;-54
2023/08/24 08:19:55;;;;;;;4.20;2.90;;;25.10;62.00;;;;;;5032466;28;20105;-55
2023/08/24 08:22:23;;;;;;;4.22;3.03;;;25.20;61.80;;;;;;5030735;28;20865;-55
2023/08/24 08:24:50;;;;;;;5.75;2.58;;;25.30;61.20;;;;;;5029912;28;20593;-56
2023/08/24 08:27:17;;;;;;;3.30;2.95;;;25.40;60.80;;;;;;5030352;28;20069;-55
2023/08/24 08:29:43;;;;;;;3.38;2.78;;;25.60;60.80;;;;;;5011522;28;20045;-54
2023/08/24 08:32:12;;;;;;;4.03;2.88;;;25.60;61.10;;;;;;5030677;28;20041;-53
2023/08/24 08:34:38;;;;;;;5.10;2.95;;;25.70;60.60;;;;;;5030426;28;20057;-54
2023/08/24 08:37:05;;;;;;;3.10;2.53;;;25.80;60.00;;;;;;5024271;28;20049;-54
2023/08/24 08:39:35;;;;;;;6.80;3.10;;;25.90;60.50;;;;;;5027004;28;20456;-54
2023/08/24 08:42:02;;;;;;;3.75;3.45;;;26.00;60.20;;;;;;5026529;28;20033;-53
2023/08/24 08:44:32;;;;;;;4.45;2.95;;;26.10;60.00;;;;;;5029783;28;20038;-52
2023/08/24 08:47:00;;;;;;;4.22;2.70;;;26.20;59.60;;;;;;5024707;28;20052;-53
2023/08/24 08:49:29;;;;;;;4.30;2.90;;;26.30;59.30;;;;;;5025180;28;20046;-54
2023/08/24 08:51:56;;;;;;;4.65;2.58;;;26.40;59.50;;;;;;5026741;28;20069;-51
2023/08/24 08:54:23;;;;;;;4.18;2.85;;;26.50;59.10;;;;;;5028333;28;20125;-53
2023/08/24 08:56:50;;;;;;;5.45;2.83;;;26.50;59.30;;;;;;5027706;28;20116;-56
2023/08/24 08:59:17;;;;;;;4.68;2.90;;;26.60;59.20;;;;;;5028955;28;20268;-54
2023/08/24 09:01:47;;;;;;;3.30;2.92;;;26.70;59.10;;;;;;5028435;28;20061;-56
2023/08/24 09:04:14;;;;;;;3.45;2.90;;;26.80;58.70;;;;;;5027840;28;20037;-54
2023/08/24 09:06:41;;;;;;;3.13;2.83;;;26.90;58.40;;;;;;5021465;28;20053;-50
2023/08/24 09:09:08;;;;;;;4.68;3.03;;;26.90;58.60;;;;;;5024482;28;20041;-53
2023/08/24 09:11:35;;;;;;;4.40;3.15;;;27.00;58.60;;;;;;5027950;28;20069;-56
2023/08/24 09:14:02;;;;;;;5.40;3.17;;;27.10;58.70;;;;;;5022974;28;20068;-54
2023/08/24 09:16:29;;;;;;;3.47;2.85;;;27.10;58.30;;;;;;5022106;28;20049;-54
2023/08/24 09:18:57;;;;;;;3.95;3.05;;;27.30;58.10;;;;;;5024627;28;20575;-56
2023/08/24 09:21:24;;;;;;;3.45;2.88;;;27.30;57.40;;;;;;5023507;28;20043;-54
2023/08/24 09:23:55;;;;;;;3.17;2.28;;;27.40;57.40;;;;;;5021243;28;20045;-56
2023/08/24 09:26:37;;;;;;;2.72;2.50;;;27.50;56.40;;;;;;5023604;28;20034;-54
2023/08/24 09:29:16;;;;;;;4.53;2.57;;;27.60;56.40;;;;;;5024730;28;20781;-55
2023/08/24 09:31:46;;;;;;;2.88;2.67;;;27.80;56.70;;;;;;5006541;28;20046;-54
2023/08/24 09:34:13;;;;;;;3.13;2.83;;;27.80;56.40;;;;;;5027870;28;20045;-54
2023/08/24 09:36:40;;;;;;;4.85;2.70;;;27.90;56.30;;;;;;5027242;28;20042;-56
2023/08/24 09:39:07;;;;;;;3.10;2.72;;;28.00;55.80;;;;;;5023139;28;20038;-54
2023/08/24 09:41:40;;;;;;;3.30;2.83;;;28.10;55.60;;;;;;5025328;28;20124;-54
2023/08/24 09:44:08;;;;;;;4.75;3.05;;;28.20;54.90;;;;;;5025085;28;20041;-52
2023/08/24 09:46:39;;;;;;;2.95;2.65;;;28.30;55.30;;;;;;5025879;28;20083;-53
2023/08/24 09:49:07;;;;;;;3.15;2.80;;;28.40;55.00;;;;;;5024295;28;20037;-52
2023/08/24 09:51:35;;;;;;;4.35;2.47;;;28.50;55.10;;;;;;5024994;28;20080;-55
2023/08/24 09:54:08;;;;;;;4.30;2.85;;;28.60;55.20;;;;;;5022952;28;20126;-54
2023/08/24 09:56:37;;;;;;;6.28;3.00;;;28.70;55.50;;;;;;5020690;28;20045;-55
2023/08/24 09:59:21;;;;;;;5.80;3.10;;;28.80;54.90;;;;;;5026160;28;20499;-54
2023/08/24 10:01:50;;;;;;;4.82;2.42;;;28.90;53.90;;;;;;5027582;28;20071;-52
2023/08/24 10:04:28;;;;;;;5.30;2.40;;;29.00;54.40;;;;;;5028407;28;20431;-55
2023/08/24 10:07:15;;;;;;;3.58;2.80;;;29.10;53.30;;;;;;5027953;28;20084;-55
2023/08/24 10:09:52;;;;;;;2.72;2.22;;;29.20;53.30;;;;;;5027290;28;20069;-55
2023/08/24 10:12:22;;;;;;;3.92;2.58;;;29.30;54.10;;;;;;5027162;28;20065;-57
2023/08/24 10:15:03;;;;;;;3.63;2.42;;;29.40;53.40;;;;;;5026030;28;20112;-56
2023/08/24 10:17:32;;;;;;;6.15;2.47;;;29.50;52.60;;;;;;5027121;28;20056;-53
2023/08/24 10:20:08;;;;;;;5.00;2.72;;;29.60;52.60;;;;;;5022118;28;20046;-53
2023/08/24 10:22:36;;;;;;;4.40;2.95;;;29.60;52.10;;;;;;5025947;28;20415;-52
2023/08/24 10:25:03;;;;;;;3.85;2.65;;;29.70;52.50;;;;;;5026115;28;20120;-56
2023/08/24 10:27:30;;;;;;;5.15;2.70;;;29.80;52.60;;;;;;5023436;28;20124;-56
2023/08/24 10:30:00;;;;;;;4.57;2.60;;;29.90;52.90;;;;;;5025476;28;20091;-53
2023/08/24 10:32:27;;;;;;;4.50;3.00;;;29.90;52.60;;;;;;5068940;23;20068;-51
2023/08/24 10:34:56;;;;;;;4.45;2.25;;;30.00;52.40;;;;;;5007793;28;20065;-51
2023/08/24 10:37:27;;;;;;;3.25;2.78;;;30.00;52.60;;;;;;5009734;28;20455;-48
2023/08/24 10:39:54;;;;;;;3.08;2.70;;;30.10;52.50;;;;;;5010028;28;20037;-53
2023/08/24 10:42:21;;;;;;;6.38;2.78;;;30.20;52.50;;;;;;5008015;28;20034;-50
2023/08/24 10:44:49;;;;;;;4.22;2.75;;;30.20;51.80;;;;;;5006996;28;20045;-49
2023/08/24 10:47:22;;;;;;;4.28;2.28;;;30.30;52.30;;;;;;5008838;28;20073;-48
2023/08/24 10:49:55;;;;;;;3.38;2.70;;;30.40;51.60;;;;;;5009640;28;20038;-51
2023/08/24 10:52:35;;;;;;;3.00;2.70;;;30.40;51.20;;;;;;5006025;28;20075;-55
2023/08/24 10:55:04;;;;;;;5.07;3.05;;;30.50;51.50;;;;;;5010711;28;20074;-50
2023/08/24 10:57:38;;;;;;;4.78;2.90;;;30.50;51.60;;;;;;5007273;28;20057;-48
2023/08/24 11:00:08;;;;;;;5.28;2.80;;;30.50;51.50;;;;;;5005303;28;20048;-50
2023/08/24 11:02:46;;;;;;;3.78;2.78;;;30.50;50.90;;;;;;5003792;28;20758;-48
2023/08/24 11:05:24;;;;;;;5.53;2.90;;;30.50;51.60;;;;;;4998840;28;20378;-49
2023/08/24 11:07:56;;;;;;;3.22;2.70;;;30.50;51.40;;;;;;5003448;28;20054;-51
2023/08/24 11:10:46;;;;;;;3.47;2.42;;;30.30;51.30;;;;;;5007047;28;20069;-51
2023/08/24 11:13:16;;;;;;;5.95;2.75;;;30.30;51.90;;;;;;5003747;28;20544;-51
2023/08/24 11:15:47;;;;;;;4.30;3.05;;;30.20;51.80;;;;;;5006543;28;20145;-52
2023/08/24 11:18:20;;;;;;;3.95;2.92;;;30.20;51.60;;;;;;5008463;28;20041;-49
2023/08/24 11:20:48;;;;;;;4.30;3.08;;;30.10;51.70;;;;;;5008988;28;20066;-51
2023/08/24 11:23:16;;;;;;;3.78;2.55;;;30.00;51.90;;;;;;5008219;28;20049;-49
2023/08/24 11:25:43;;;;;;;5.00;3.28;;;29.90;52.10;;;;;;5005984;28;20099;-52
2023/08/24 11:28:10;;;;;;;3.95;3.25;;;29.80;52.30;;;;;;5003616;28;20052;-50
2023/08/24 11:30:37;;;;;;;3.88;2.63;;;29.80;52.30;;;;;;5010478;28;20673;-49
2023/08/24 11:33:04;;;;;;;5.90;2.90;;;29.70;51.70;;;;;;5008089;28;20526;-52
2023/08/24 11:35:36;;;;;;;5.78;3.10;;;29.60;51.40;;;;;;5008595;28;20037;-52
2023/08/24 11:38:03;;;;;;;3.40;3.00;;;29.60;51.10;;;;;;5007168;28;20046;-50
2023/08/24 11:40:30;;;;;;;4.75;2.90;;;29.40;51.20;;;;;;5004969;28;20085;-52
2023/08/24 11:42:57;;;;;;;4.82;2.70;;;29.30;51.70;;;;;;5000092;28;20092;-53
2023/08/24 11:45:29;;;;;;;4.07;2.75;;;29.20;51.70;;;;;;5003195;28;20078;-53
2023/08/24 11:47:57;;;;;;;5.28;2.72;;;29.10;52.20;;;;;;4998534;28;20111;-52
2023/08/24 11:50:24;;;;;;;5.28;2.88;;;29.10;52.90;;;;;;5008281;28;20073;-53
2023/08/24 11:52:53;;;;;;;3.90;3.05;;;28.90;53.20;;;;;;5010053;28;20126;-53
2023/08/24 11:55:21;;;;;;;5.75;2.83;;;28.70;53.60;;;;;;5013011;28;20046;-53
2023/08/24 11:57:48;;;;;;;6.35;3.53;;;28.60;55.10;;;;;;5008865;28;20579;-49
2023/08/24 12:00:16;;;;;;;6.32;3.10;;;28.40;55.70;;;;;;5007564;28;20048;-53
2023/08/24 12:02:43;;;;;;;4.10;2.67;;;28.20;56.00;;;;;;5002963;28;20484;-52
2023/08/24 12:05:24;;;;;;;4.35;3.55;;;28.10;56.60;;;;;;5007539;28;20436;-52
2023/08/24 12:07:52;;;;;;;5.25;2.88;;;28.00;57.80;;;;;;5002959;28;20635;-50
2023/08/24 12:10:20;;;;;;;6.47;3.58;;;27.80;58.60;;;;;;5008461;28;20046;-54
2023/08/24 12:12:48;;;;;;;5.82;3.50;;;27.60;59.80;;;;;;5009388;28;20096;-53
2023/08/24 12:15:22;;;;;;;5.22;3.50;;;27.60;60.90;;;;;;5006435;28;20038;-50
2023/08/24 12:17:51;;;;;;;3.95;3.55;;;27.50;61.90;;;;;;5010411;28;20420;-51
2023/08/24 12:20:22;;;;;;;4.63;3.30;;;27.50;62.10;;;;;;5011620;28;20460;-51
2023/08/24 12:22:54;;;;;;;7.63;3.30;;;27.50;62.40;;;;;;5004474;28;20689;-53
2023/08/24 12:25:25;;;;;;;5.83;3.37;;;27.60;63.00;;;;;;5011421;28;20093;-53
2023/08/24 12:28:07;;;;;;;5.80;3.45;;;27.70;63.30;;;;;;5008969;28;20073;-52
2023/08/24 12:30:50;;;;;;;5.70;3.25;;;27.70;63.50;;;;;;5009932;28;20048;-50
2023/08/24 12:33:23;;;;;;;3.85;3.45;;;27.90;63.70;;;;;;5004352;28;20050;-51
2023/08/24 12:35:50;;;;;;;4.72;3.40;;;28.00;64.10;;;;;;5008754;28;20489;-53
2023/08/24 12:38:17;;;;;;;7.35;4.00;;;28.10;63.60;;;;;;5008623;28;20555;-51
2023/08/24 12:40:44;;;;;;;5.30;4.35;;;28.30;63.50;;;;;;5006803;28;20038;-49
2023/08/24 12:43:11;;;;;;;6.25;3.47;;;28.40;63.00;;;;;;5004712;28;20564;-50
2023/08/24 12:45:38;;;;;;;3.85;3.17;;;28.60;62.60;;;;;;5009873;28;20042;-51
2023/08/24 12:48:06;;;;;;;5.95;3.78;;;28.70;63.00;;;;;;5010494;28;20049;-51
2023/08/24 12:50:34;;;;;;;7.60;3.22;;;28.90;61.50;;;;;;5004866;28;20049;-55
2023/08/24 12:53:02;;;;;;;6.68;4.50;;;29.00;61.30;;;;;;5003214;28;20113;-54
2023/08/24 12:55:29;;;;;;;4.43;3.35;;;29.20;61.60;;;;;;5009130;28;20111;-49
2023/08/24 12:57:56;;;;;;;6.38;3.92;;;29.30;61.20;;;;;;5007436;28;20534;-51